sensor_id;sensor_type;location;lat;lon;timestamp;P1;durP1;ratioP1;P2;durP2;ratioP2
56399;SDS011;42298;53.638;9.876;2023-06-04T00:01:04;5.50;;;2.20;;
56399;SDS011;42298;53.638;9.876;2023-06-04T00:03:30;3.20;;;1.80;;
56399;SDS011;42298;53.638;9.876;2023-06-04T00:05:57;3.83;;;2.13;;
56399;SDS011;42298;53.638;9.876;2023-06-04T00:08:22;5.20;;;2.40;;
56399;SDS011;42298;53.638;9.876;2023-06-04T00:10:48;3.45;;;2.10;;
56399;SDS011;42298;53.638;9.876;2023-06-04T00:13:13;5.60;;;2.20;;
56399;SDS011;42298;53.638;9.876;2023-06-04T00:15:39;3.30;;;1.93;;
56399;SDS011;42298;53.638;9.876;2023-06-04T00:18:04;3.13;;;1.87;;
56399;SDS011;42298;53.638;9.876;2023-06-04T00:20:30;3.20;;;1.80;;
56399;SDS011;42298;53.638;9.876;2023-06-04T00:23:00;4.40;;;2.10;;
56399;SDS011;42298;53.638;9.876;2023-06-04T00:25:27;4.60;;;2.07;;
56399;SDS011;42298;53.638;9.876;2023-06-04T00:27:52;4.40;;;2.20;;
56399;SDS011;42298;53.638;9.876;2023-06-04T00:30:18;4.13;;;2.10;;
56399;SDS011;42298;53.638;9.876;2023-06-04T00:32:43;5.07;;;2.20;;
56399;SDS011;42298;53.638;9.876;2023-06-04T00:35:09;3.43;;;2.00;;
56399;SDS011;42298;53.638;9.876;2023-06-04T00:37:34;5.50;;;2.20;;
56399;SDS011;42298;53.638;9.876;2023-06-04T00:40:00;3.13;;;2.20;;
56399;SDS011;42298;53.638;9.876;2023-06-04T00:42:25;4.60;;;2.10;;
56399;SDS011;42298;53.638;9.876;2023-06-04T00:44:50;3.67;;;2.20;;
56399;SDS011;42298;53.638;9.876;2023-06-04T00:47:16;5.97;;;2.40;;
56399;SDS011;42298;53.638;9.876;2023-06-04T00:49:43;5.13;;;2.30;;
56399;SDS011;42298;53.638;9.876;2023-06-04T00:52:09;5.72;;;2.25;;
56399;SDS011;42298;53.638;9.876;2023-06-04T00:54:35;4.60;;;2.30;;
56399;SDS011;42298;53.638;9.876;2023-06-04T00:57:01;3.93;;;2.20;;
56399;SDS011;42298;53.638;9.876;2023-06-04T00:59:27;5.23;;;2.30;;
56399;SDS011;42298;53.638;9.876;2023-06-04T01:02:12;4.50;;;2.00;;
56399;SDS011;42298;53.638;9.876;2023-06-04T01:07:41;5.10;;;2.30;;
56399;SDS011;42298;53.638;9.876;2023-06-04T01:10:11;4.50;;;2.27;;
56399;SDS011;42298;53.638;9.876;2023-06-04T01:12:41;4.53;;;2.13;;
56399;SDS011;42298;53.638;9.876;2023-06-04T01:15:07;5.27;;;1.93;;
56399;SDS011;42298;53.638;9.876;2023-06-04T01:17:35;4.27;;;2.13;;
56399;SDS011;42298;53.638;9.876;2023-06-04T01:28:16;5.80;;;2.43;;
56399;SDS011;42298;53.638;9.876;2023-06-04T01:30:43;4.53;;;2.30;;
56399;SDS011;42298;53.638;9.876;2023-06-04T01:33:11;3.03;;;1.93;;
56399;SDS011;42298;53.638;9.876;2023-06-04T01:35:38;6.93;;;2.60;;
56399;SDS011;42298;53.638;9.876;2023-06-04T01:38:03;3.60;;;2.10;;
56399;SDS011;42298;53.638;9.876;2023-06-04T01:40:29;3.80;;;2.20;;
56399;SDS011;42298;53.638;9.876;2023-06-04T01:42:55;4.20;;;2.23;;
56399;SDS011;42298;53.638;9.876;2023-06-04T01:45:21;5.63;;;2.33;;
56399;SDS011;42298;53.638;9.876;2023-06-04T01:47:47;3.30;;;2.13;;
56399;SDS011;42298;53.638;9.876;2023-06-04T01:50:12;4.90;;;2.33;;
56399;SDS011;42298;53.638;9.876;2023-06-04T01:52:38;5.27;;;2.30;;
56399;SDS011;42298;53.638;9.876;2023-06-04T01:55:09;4.73;;;2.43;;
56399;SDS011;42298;53.638;9.876;2023-06-04T01:57:39;7.63;;;2.63;;
56399;SDS011;42298;53.638;9.876;2023-06-04T02:00:06;5.67;;;2.80;;
56399;SDS011;42298;53.638;9.876;2023-06-04T02:02:34;5.07;;;2.23;;
56399;SDS011;42298;53.638;9.876;2023-06-04T02:05:00;6.07;;;2.10;;
56399;SDS011;42298;53.638;9.876;2023-06-04T02:07:26;3.33;;;2.17;;
56399;SDS011;42298;53.638;9.876;2023-06-04T02:09:54;6.03;;;2.77;;
56399;SDS011;42298;53.638;9.876;2023-06-04T02:12:20;4.30;;;2.50;;
56399;SDS011;42298;53.638;9.876;2023-06-04T02:14:45;4.37;;;2.47;;
56399;SDS011;42298;53.638;9.876;2023-06-04T02:17:11;5.73;;;2.80;;
56399;SDS011;42298;53.638;9.876;2023-06-04T02:19:41;5.80;;;2.50;;
56399;SDS011;42298;53.638;9.876;2023-06-04T02:22:14;5.50;;;2.70;;
56399;SDS011;42298;53.638;9.876;2023-06-04T02:24:44;4.57;;;2.63;;
56399;SDS011;42298;53.638;9.876;2023-06-04T02:27:10;6.43;;;2.90;;
56399;SDS011;42298;53.638;9.876;2023-06-04T02:29:37;5.80;;;2.90;;
56399;SDS011;42298;53.638;9.876;2023-06-04T02:32:03;4.37;;;2.57;;
56399;SDS011;42298;53.638;9.876;2023-06-04T02:34:29;9.07;;;3.47;;
56399;SDS011;42298;53.638;9.876;2023-06-04T02:36:55;6.73;;;2.97;;
56399;SDS011;42298;53.638;9.876;2023-06-04T02:39:20;4.47;;;2.70;;
56399;SDS011;42298;53.638;9.876;2023-06-04T02:41:45;7.40;;;2.60;;
56399;SDS011;42298;53.638;9.876;2023-06-04T02:44:12;4.60;;;2.50;;
56399;SDS011;42298;53.638;9.876;2023-06-04T02:46:38;6.47;;;2.63;;
56399;SDS011;42298;53.638;9.876;2023-06-04T02:49:03;4.83;;;2.50;;
56399;SDS011;42298;53.638;9.876;2023-06-04T02:51:29;5.77;;;2.77;;
56399;SDS011;42298;53.638;9.876;2023-06-04T02:53:57;6.87;;;2.57;;
56399;SDS011;42298;53.638;9.876;2023-06-04T02:56:26;6.07;;;2.53;;
56399;SDS011;42298;53.638;9.876;2023-06-04T02:58:52;6.47;;;3.10;;
56399;SDS011;42298;53.638;9.876;2023-06-04T03:01:20;5.10;;;2.57;;
56399;SDS011;42298;53.638;9.876;2023-06-04T03:03:51;6.03;;;2.83;;
56399;SDS011;42298;53.638;9.876;2023-06-04T03:06:17;5.57;;;2.73;;
56399;SDS011;42298;53.638;9.876;2023-06-04T03:08:45;6.10;;;2.50;;
56399;SDS011;42298;53.638;9.876;2023-06-04T03:11:10;4.20;;;2.37;;
56399;SDS011;42298;53.638;9.876;2023-06-04T03:13:36;5.87;;;2.33;;
56399;SDS011;42298;53.638;9.876;2023-06-04T03:16:03;6.10;;;2.67;;
56399;SDS011;42298;53.638;9.876;2023-06-04T03:18:36;6.47;;;3.10;;
56399;SDS011;42298;53.638;9.876;2023-06-04T03:21:02;7.53;;;2.93;;
56399;SDS011;42298;53.638;9.876;2023-06-04T03:23:29;4.57;;;2.60;;
56399;SDS011;42298;53.638;9.876;2023-06-04T03:25:55;5.33;;;2.60;;
56399;SDS011;42298;53.638;9.876;2023-06-04T03:28:21;6.50;;;2.60;;
56399;SDS011;42298;53.638;9.876;2023-06-04T03:30:46;3.63;;;2.30;;
56399;SDS011;42298;53.638;9.876;2023-06-04T03:33:13;4.13;;;2.50;;
56399;SDS011;42298;53.638;9.876;2023-06-04T03:35:41;6.43;;;2.70;;
56399;SDS011;42298;53.638;9.876;2023-06-04T03:38:07;4.97;;;2.27;;
56399;SDS011;42298;53.638;9.876;2023-06-04T03:40:32;6.47;;;2.80;;
56399;SDS011;42298;53.638;9.876;2023-06-04T03:42:58;8.10;;;2.50;;
56399;SDS011;42298;53.638;9.876;2023-06-04T03:45:25;6.63;;;2.43;;
56399;SDS011;42298;53.638;9.876;2023-06-04T03:47:50;5.97;;;2.40;;
56399;SDS011;42298;53.638;9.876;2023-06-04T03:50:17;5.50;;;2.57;;
56399;SDS011;42298;53.638;9.876;2023-06-04T03:52:45;5.33;;;2.47;;
56399;SDS011;42298;53.638;9.876;2023-06-04T03:55:11;3.80;;;2.20;;
56399;SDS011;42298;53.638;9.876;2023-06-04T03:57:37;5.03;;;2.30;;
56399;SDS011;42298;53.638;9.876;2023-06-04T04:00:05;7.33;;;2.70;;
56399;SDS011;42298;53.638;9.876;2023-06-04T04:02:31;5.40;;;2.50;;
56399;SDS011;42298;53.638;9.876;2023-06-04T04:04:57;6.60;;;2.73;;
56399;SDS011;42298;53.638;9.876;2023-06-04T04:07:25;5.20;;;2.33;;
56399;SDS011;42298;53.638;9.876;2023-06-04T04:09:51;6.93;;;2.70;;
56399;SDS011;42298;53.638;9.876;2023-06-04T04:12:17;3.60;;;2.23;;
56399;SDS011;42298;53.638;9.876;2023-06-04T04:14:42;6.17;;;2.90;;
56399;SDS011;42298;53.638;9.876;2023-06-04T04:17:08;5.10;;;2.23;;
56399;SDS011;42298;53.638;9.876;2023-06-04T04:19:34;5.23;;;2.43;;
56399;SDS011;42298;53.638;9.876;2023-06-04T04:21:59;6.17;;;2.73;;
56399;SDS011;42298;53.638;9.876;2023-06-04T04:24:25;3.47;;;2.35;;
56399;SDS011;42298;53.638;9.876;2023-06-04T04:26:52;7.63;;;3.10;;
56399;SDS011;42298;53.638;9.876;2023-06-04T04:29:22;5.40;;;2.80;;
56399;SDS011;42298;53.638;9.876;2023-06-04T04:31:49;5.32;;;2.50;;
56399;SDS011;42298;53.638;9.876;2023-06-04T04:34:18;5.57;;;2.90;;
56399;SDS011;42298;53.638;9.876;2023-06-04T04:36:46;5.88;;;2.80;;
56399;SDS011;42298;53.638;9.876;2023-06-04T04:39:26;5.60;;;2.85;;
56399;SDS011;42298;53.638;9.876;2023-06-04T04:44:28;4.85;;;2.47;;
56399;SDS011;42298;53.638;9.876;2023-06-04T04:46:53;7.10;;;3.10;;
56399;SDS011;42298;53.638;9.876;2023-06-04T04:49:19;6.10;;;2.63;;
56399;SDS011;42298;53.638;9.876;2023-06-04T04:51:44;5.85;;;2.70;;
56399;SDS011;42298;53.638;9.876;2023-06-04T04:54:10;9.57;;;2.55;;
56399;SDS011;42298;53.638;9.876;2023-06-04T04:56:35;7.10;;;2.53;;
56399;SDS011;42298;53.638;9.876;2023-06-04T04:59:00;5.55;;;2.45;;
56399;SDS011;42298;53.638;9.876;2023-06-04T05:01:26;7.93;;;2.83;;
56399;SDS011;42298;53.638;9.876;2023-06-04T05:03:51;8.02;;;2.92;;
56399;SDS011;42298;53.638;9.876;2023-06-04T05:06:17;5.22;;;2.45;;
56399;SDS011;42298;53.638;9.876;2023-06-04T05:08:42;6.93;;;2.85;;
56399;SDS011;42298;53.638;9.876;2023-06-04T05:11:08;9.55;;;3.08;;
56399;SDS011;42298;53.638;9.876;2023-06-04T05:13:33;7.18;;;3.05;;
56399;SDS011;42298;53.638;9.876;2023-06-04T05:15:59;9.73;;;2.90;;
56399;SDS011;42298;53.638;9.876;2023-06-04T05:18:25;7.65;;;2.80;;
56399;SDS011;42298;53.638;9.876;2023-06-04T05:20:56;7.75;;;3.10;;
56399;SDS011;42298;53.638;9.876;2023-06-04T05:23:22;8.30;;;2.67;;
56399;SDS011;42298;53.638;9.876;2023-06-04T05:25:48;7.15;;;2.95;;
56399;SDS011;42298;53.638;9.876;2023-06-04T05:28:15;5.53;;;2.50;;
56399;SDS011;42298;53.638;9.876;2023-06-04T05:30:40;7.35;;;2.97;;
56399;SDS011;42298;53.638;9.876;2023-06-04T05:33:06;9.90;;;3.30;;
56399;SDS011;42298;53.638;9.876;2023-06-04T05:35:36;9.35;;;3.13;;
56399;SDS011;42298;53.638;9.876;2023-06-04T05:38:06;8.70;;;3.10;;
56399;SDS011;42298;53.638;9.876;2023-06-04T05:40:33;5.53;;;2.47;;
56399;SDS011;42298;53.638;9.876;2023-06-04T05:42:58;8.35;;;3.03;;
56399;SDS011;42298;53.638;9.876;2023-06-04T05:45:23;10.07;;;3.17;;
56399;SDS011;42298;53.638;9.876;2023-06-04T05:47:49;8.90;;;2.70;;
56399;SDS011;42298;53.638;9.876;2023-06-04T05:50:14;7.32;;;3.00;;
56399;SDS011;42298;53.638;9.876;2023-06-04T05:52:39;8.85;;;2.88;;
56399;SDS011;42298;53.638;9.876;2023-06-04T05:55:05;10.60;;;2.92;;
56399;SDS011;42298;53.638;9.876;2023-06-04T05:57:32;8.35;;;3.17;;
56399;SDS011;42298;53.638;9.876;2023-06-04T05:59:57;11.02;;;3.20;;
56399;SDS011;42298;53.638;9.876;2023-06-04T06:02:23;10.25;;;3.00;;
56399;SDS011;42298;53.638;9.876;2023-06-04T06:04:48;6.95;;;2.70;;
56399;SDS011;42298;53.638;9.876;2023-06-04T06:07:14;8.93;;;3.13;;
56399;SDS011;42298;53.638;9.876;2023-06-04T06:09:39;8.25;;;3.30;;
56399;SDS011;42298;53.638;9.876;2023-06-04T06:12:06;7.63;;;2.72;;
56399;SDS011;42298;53.638;9.876;2023-06-04T06:14:31;7.13;;;2.70;;
56399;SDS011;42298;53.638;9.876;2023-06-04T06:16:57;8.77;;;2.85;;
56399;SDS011;42298;53.638;9.876;2023-06-04T06:19:22;7.80;;;2.63;;
56399;SDS011;42298;53.638;9.876;2023-06-04T06:21:48;8.98;;;3.00;;
56399;SDS011;42298;53.638;9.876;2023-06-04T06:24:14;10.02;;;2.85;;
56399;SDS011;42298;53.638;9.876;2023-06-04T06:26:41;6.57;;;2.60;;
56399;SDS011;42298;53.638;9.876;2023-06-04T06:29:07;7.28;;;2.60;;
56399;SDS011;42298;53.638;9.876;2023-06-04T06:31:32;8.80;;;2.88;;
56399;SDS011;42298;53.638;9.876;2023-06-04T06:33:58;10.27;;;2.63;;
56399;SDS011;42298;53.638;9.876;2023-06-04T06:36:24;7.68;;;2.72;;
56399;SDS011;42298;53.638;9.876;2023-06-04T06:38:51;8.02;;;2.70;;
56399;SDS011;42298;53.638;9.876;2023-06-04T06:41:17;6.95;;;2.50;;
56399;SDS011;42298;53.638;9.876;2023-06-04T06:43:42;7.53;;;2.65;;
56399;SDS011;42298;53.638;9.876;2023-06-04T06:46:07;8.90;;;2.85;;
56399;SDS011;42298;53.638;9.876;2023-06-04T06:48:33;9.88;;;2.78;;
56399;SDS011;42298;53.638;9.876;2023-06-04T06:50:58;6.68;;;2.50;;
56399;SDS011;42298;53.638;9.876;2023-06-04T06:53:23;7.30;;;2.50;;
56399;SDS011;42298;53.638;9.876;2023-06-04T06:55:49;7.22;;;2.80;;
56399;SDS011;42298;53.638;9.876;2023-06-04T06:58:14;4.97;;;2.10;;
56399;SDS011;42298;53.638;9.876;2023-06-04T07:00:40;6.35;;;2.33;;
56399;SDS011;42298;53.638;9.876;2023-06-04T07:03:05;6.50;;;2.33;;
56399;SDS011;42298;53.638;9.876;2023-06-04T07:05:33;6.00;;;2.38;;
56399;SDS011;42298;53.638;9.876;2023-06-04T07:07:58;6.85;;;2.75;;
56399;SDS011;42298;53.638;9.876;2023-06-04T07:10:25;7.10;;;2.13;;
56399;SDS011;42298;53.638;9.876;2023-06-04T07:12:52;8.00;;;2.50;;
56399;SDS011;42298;53.638;9.876;2023-06-04T07:15:17;5.57;;;2.45;;
56399;SDS011;42298;53.638;9.876;2023-06-04T07:17:43;6.88;;;2.00;;
56399;SDS011;42298;53.638;9.876;2023-06-04T07:20:09;5.88;;;2.17;;
56399;SDS011;42298;53.638;9.876;2023-06-04T07:22:34;8.88;;;2.30;;
56399;SDS011;42298;53.638;9.876;2023-06-04T07:25:00;7.13;;;2.33;;
56399;SDS011;42298;53.638;9.876;2023-06-04T07:27:26;8.05;;;2.50;;
56399;SDS011;42298;53.638;9.876;2023-06-04T07:29:51;6.30;;;2.05;;
56399;SDS011;42298;53.638;9.876;2023-06-04T07:32:17;6.80;;;2.25;;
56399;SDS011;42298;53.638;9.876;2023-06-04T07:34:42;7.45;;;2.30;;
56399;SDS011;42298;53.638;9.876;2023-06-04T07:37:07;5.38;;;2.00;;
56399;SDS011;42298;53.638;9.876;2023-06-04T07:39:34;3.88;;;1.73;;
56399;SDS011;42298;53.638;9.876;2023-06-04T07:41:59;7.55;;;2.10;;
56399;SDS011;42298;53.638;9.876;2023-06-04T07:44:25;6.18;;;1.98;;
56399;SDS011;42298;53.638;9.876;2023-06-04T07:46:50;7.07;;;2.08;;
56399;SDS011;42298;53.638;9.876;2023-06-04T07:49:15;7.55;;;2.28;;
56399;SDS011;42298;53.638;9.876;2023-06-04T07:51:41;4.22;;;1.98;;
56399;SDS011;42298;53.638;9.876;2023-06-04T07:54:06;5.65;;;1.70;;
56399;SDS011;42298;53.638;9.876;2023-06-04T07:56:32;4.70;;;1.83;;
56399;SDS011;42298;53.638;9.876;2023-06-04T07:58:57;6.22;;;1.85;;
56399;SDS011;42298;53.638;9.876;2023-06-04T08:01:22;3.90;;;1.67;;
56399;SDS011;42298;53.638;9.876;2023-06-04T08:03:50;7.30;;;2.30;;
56399;SDS011;42298;53.638;9.876;2023-06-04T08:06:15;3.97;;;1.73;;
56399;SDS011;42298;53.638;9.876;2023-06-04T08:08:44;5.05;;;1.75;;
56399;SDS011;42298;53.638;9.876;2023-06-04T08:11:10;5.13;;;1.70;;
56399;SDS011;42298;53.638;9.876;2023-06-04T08:13:36;6.97;;;1.55;;
56399;SDS011;42298;53.638;9.876;2023-06-04T08:16:02;6.43;;;1.60;;
56399;SDS011;42298;53.638;9.876;2023-06-04T08:18:27;3.30;;;1.60;;
56399;SDS011;42298;53.638;9.876;2023-06-04T08:20:54;6.90;;;1.70;;
56399;SDS011;42298;53.638;9.876;2023-06-04T08:23:19;3.90;;;1.45;;
56399;SDS011;42298;53.638;9.876;2023-06-04T08:25:45;4.90;;;1.58;;
56399;SDS011;42298;53.638;9.876;2023-06-04T08:28:10;2.92;;;1.48;;
56399;SDS011;42298;53.638;9.876;2023-06-04T08:30:38;5.57;;;1.83;;
56399;SDS011;42298;53.638;9.876;2023-06-04T08:33:03;3.20;;;1.40;;
56399;SDS011;42298;53.638;9.876;2023-06-04T08:35:29;2.15;;;1.30;;
56399;SDS011;42298;53.638;9.876;2023-06-04T08:37:54;4.57;;;1.70;;
56399;SDS011;42298;53.638;9.876;2023-06-04T08:40:19;8.38;;;1.95;;
56399;SDS011;42298;53.638;9.876;2023-06-04T08:42:45;3.58;;;1.77;;
56399;SDS011;42298;53.638;9.876;2023-06-04T08:45:12;3.20;;;1.60;;
56399;SDS011;42298;53.638;9.876;2023-06-04T08:47:48;4.13;;;1.70;;
56399;SDS011;42298;53.638;9.876;2023-06-04T08:50:15;4.10;;;1.70;;
56399;SDS011;42298;53.638;9.876;2023-06-04T08:52:42;3.47;;;1.50;;
56399;SDS011;42298;53.638;9.876;2023-06-04T08:55:11;3.83;;;1.50;;
56399;SDS011;42298;53.638;9.876;2023-06-04T08:57:39;3.70;;;1.65;;
56399;SDS011;42298;53.638;9.876;2023-06-04T09:00:05;5.53;;;1.80;;
56399;SDS011;42298;53.638;9.876;2023-06-04T09:02:32;4.82;;;1.70;;
56399;SDS011;42298;53.638;9.876;2023-06-04T09:05:02;8.00;;;2.20;;
56399;SDS011;42298;53.638;9.876;2023-06-04T09:07:28;5.35;;;1.70;;
56399;SDS011;42298;53.638;9.876;2023-06-04T09:09:55;3.75;;;1.83;;
56399;SDS011;42298;53.638;9.876;2023-06-04T09:12:21;5.15;;;1.35;;
56399;SDS011;42298;53.638;9.876;2023-06-04T09:14:49;3.17;;;1.65;;
56399;SDS011;42298;53.638;9.876;2023-06-04T09:17:15;3.72;;;1.50;;
56399;SDS011;42298;53.638;9.876;2023-06-04T09:19:46;4.28;;;1.63;;
56399;SDS011;42298;53.638;9.876;2023-06-04T09:22:11;4.78;;;1.65;;
56399;SDS011;42298;53.638;9.876;2023-06-04T09:24:43;4.22;;;1.60;;
56399;SDS011;42298;53.638;9.876;2023-06-04T09:27:18;3.85;;;1.80;;
56399;SDS011;42298;53.638;9.876;2023-06-04T09:29:50;5.18;;;1.80;;
56399;SDS011;42298;53.638;9.876;2023-06-04T09:32:20;4.25;;;1.70;;
56399;SDS011;42298;53.638;9.876;2023-06-04T09:34:48;7.40;;;2.35;;
56399;SDS011;42298;53.638;9.876;2023-06-04T09:37:15;4.45;;;2.00;;
56399;SDS011;42298;53.638;9.876;2023-06-04T09:39:42;3.63;;;1.75;;
56399;SDS011;42298;53.638;9.876;2023-06-04T09:42:08;6.60;;;2.13;;
56399;SDS011;42298;53.638;9.876;2023-06-04T09:44:42;7.13;;;1.92;;
56399;SDS011;42298;53.638;9.876;2023-06-04T09:47:08;5.68;;;2.10;;
56399;SDS011;42298;53.638;9.876;2023-06-04T09:49:43;4.28;;;1.83;;
56399;SDS011;42298;53.638;9.876;2023-06-04T09:52:10;6.18;;;1.92;;
56399;SDS011;42298;53.638;9.876;2023-06-04T09:54:39;6.05;;;2.00;;
56399;SDS011;42298;53.638;9.876;2023-06-04T09:57:16;5.00;;;1.65;;
56399;SDS011;42298;53.638;9.876;2023-06-04T09:59:46;5.53;;;1.77;;
56399;SDS011;42298;53.638;9.876;2023-06-04T10:02:17;3.40;;;1.80;;
56399;SDS011;42298;53.638;9.876;2023-06-04T10:04:44;4.07;;;1.60;;
56399;SDS011;42298;53.638;9.876;2023-06-04T10:07:14;3.55;;;1.60;;
56399;SDS011;42298;53.638;9.876;2023-06-04T10:09:41;5.32;;;1.80;;
56399;SDS011;42298;53.638;9.876;2023-06-04T10:12:11;4.05;;;1.98;;
56399;SDS011;42298;53.638;9.876;2023-06-04T10:14:54;4.97;;;1.88;;
56399;SDS011;42298;53.638;9.876;2023-06-04T10:17:24;4.88;;;1.83;;
56399;SDS011;42298;53.638;9.876;2023-06-04T10:19:52;3.70;;;1.67;;
56399;SDS011;42298;53.638;9.876;2023-06-04T10:22:19;4.28;;;2.10;;
56399;SDS011;42298;53.638;9.876;2023-06-04T10:24:48;4.65;;;1.65;;
56399;SDS011;42298;53.638;9.876;2023-06-04T10:27:13;4.43;;;1.80;;
56399;SDS011;42298;53.638;9.876;2023-06-04T10:29:40;8.25;;;2.00;;
56399;SDS011;42298;53.638;9.876;2023-06-04T10:32:06;4.80;;;1.85;;
56399;SDS011;42298;53.638;9.876;2023-06-04T10:34:31;5.18;;;1.95;;
56399;SDS011;42298;53.638;9.876;2023-06-04T10:36:57;3.83;;;1.77;;
56399;SDS011;42298;53.638;9.876;2023-06-04T10:39:26;3.22;;;1.70;;
56399;SDS011;42298;53.638;9.876;2023-06-04T10:42:00;5.68;;;2.17;;
56399;SDS011;42298;53.638;9.876;2023-06-04T10:44:30;3.65;;;1.80;;
56399;SDS011;42298;53.638;9.876;2023-06-04T10:47:19;5.10;;;1.85;;
56399;SDS011;42298;53.638;9.876;2023-06-04T10:49:46;4.15;;;1.77;;
56399;SDS011;42298;53.638;9.876;2023-06-04T10:52:12;9.38;;;2.67;;
56399;SDS011;42298;53.638;9.876;2023-06-04T10:54:37;7.20;;;1.92;;
56399;SDS011;42298;53.638;9.876;2023-06-04T10:57:15;7.05;;;2.08;;
56399;SDS011;42298;53.638;9.876;2023-06-04T10:59:42;4.53;;;1.85;;
56399;SDS011;42298;53.638;9.876;2023-06-04T11:02:18;4.97;;;1.85;;
56399;SDS011;42298;53.638;9.876;2023-06-04T11:04:43;4.90;;;1.75;;
56399;SDS011;42298;53.638;9.876;2023-06-04T11:07:09;4.65;;;1.75;;
56399;SDS011;42298;53.638;9.876;2023-06-04T11:09:35;3.03;;;1.70;;
56399;SDS011;42298;53.638;9.876;2023-06-04T11:12:01;5.10;;;1.85;;
56399;SDS011;42298;53.638;9.876;2023-06-04T11:14:29;9.70;;;2.22;;
56399;SDS011;42298;53.638;9.876;2023-06-04T11:16:55;5.30;;;1.70;;
56399;SDS011;42298;53.638;9.876;2023-06-04T11:19:20;2.30;;;1.42;;
56399;SDS011;42298;53.638;9.876;2023-06-04T11:21:47;3.05;;;1.48;;
56399;SDS011;42298;53.638;9.876;2023-06-04T11:24:13;3.45;;;1.80;;
56399;SDS011;42298;53.638;9.876;2023-06-04T11:26:38;4.97;;;1.80;;
56399;SDS011;42298;53.638;9.876;2023-06-04T11:29:10;5.60;;;1.60;;
56399;SDS011;42298;53.638;9.876;2023-06-04T11:31:41;5.30;;;1.65;;
56399;SDS011;42298;53.638;9.876;2023-06-04T11:34:08;5.00;;;1.70;;
56399;SDS011;42298;53.638;9.876;2023-06-04T11:36:34;3.65;;;1.75;;
56399;SDS011;42298;53.638;9.876;2023-06-04T11:39:01;3.67;;;1.60;;
56399;SDS011;42298;53.638;9.876;2023-06-04T11:41:30;7.57;;;1.80;;
56399;SDS011;42298;53.638;9.876;2023-06-04T11:44:03;4.05;;;1.65;;
56399;SDS011;42298;53.638;9.876;2023-06-04T11:46:30;4.47;;;1.80;;
56399;SDS011;42298;53.638;9.876;2023-06-04T11:48:59;5.07;;;1.90;;
56399;SDS011;42298;53.638;9.876;2023-06-04T11:51:25;4.10;;;1.75;;
56399;SDS011;42298;53.638;9.876;2023-06-04T11:53:51;5.97;;;1.50;;
56399;SDS011;42298;53.638;9.876;2023-06-04T11:56:17;3.95;;;1.33;;
56399;SDS011;42298;53.638;9.876;2023-06-04T11:58:42;5.47;;;1.60;;
56399;SDS011;42298;53.638;9.876;2023-06-04T12:01:08;4.60;;;1.60;;
56399;SDS011;42298;53.638;9.876;2023-06-04T12:11:21;3.25;;;1.60;;
56399;SDS011;42298;53.638;9.876;2023-06-04T12:13:51;4.03;;;1.50;;
56399;SDS011;42298;53.638;9.876;2023-06-04T12:16:17;3.40;;;1.42;;
56399;SDS011;42298;53.638;9.876;2023-06-04T12:18:42;6.53;;;1.50;;
56399;SDS011;42298;53.638;9.876;2023-06-04T12:23:45;3.60;;;1.70;;
56399;SDS011;42298;53.638;9.876;2023-06-04T12:26:21;3.45;;;1.48;;
56399;SDS011;42298;53.638;9.876;2023-06-04T12:29:00;3.70;;;1.65;;
56399;SDS011;42298;53.638;9.876;2023-06-04T12:31:26;3.90;;;1.70;;
56399;SDS011;42298;53.638;9.876;2023-06-04T12:33:56;3.65;;;1.52;;
56399;SDS011;42298;53.638;9.876;2023-06-04T12:36:22;3.78;;;1.60;;
56399;SDS011;42298;53.638;9.876;2023-06-04T12:38:47;3.90;;;1.40;;
56399;SDS011;42298;53.638;9.876;2023-06-04T12:41:13;4.53;;;1.90;;
56399;SDS011;42298;53.638;9.876;2023-06-04T12:43:38;2.92;;;1.55;;
56399;SDS011;42298;53.638;9.876;2023-06-04T12:46:03;3.05;;;1.55;;
56399;SDS011;42298;53.638;9.876;2023-06-04T12:48:28;2.78;;;1.50;;
56399;SDS011;42298;53.638;9.876;2023-06-04T12:50:54;4.22;;;1.73;;
56399;SDS011;42298;53.638;9.876;2023-06-04T12:53:19;3.30;;;1.85;;
56399;SDS011;42298;53.638;9.876;2023-06-04T12:55:44;5.57;;;2.00;;
56399;SDS011;42298;53.638;9.876;2023-06-04T12:58:10;4.03;;;1.80;;
56399;SDS011;42298;53.638;9.876;2023-06-04T13:00:35;4.88;;;1.70;;
56399;SDS011;42298;53.638;9.876;2023-06-04T13:03:00;4.43;;;1.75;;
56399;SDS011;42298;53.638;9.876;2023-06-04T13:05:26;2.83;;;1.73;;
56399;SDS011;42298;53.638;9.876;2023-06-04T13:07:51;3.22;;;1.50;;
56399;SDS011;42298;53.638;9.876;2023-06-04T13:10:16;3.63;;;1.67;;
56399;SDS011;42298;53.638;9.876;2023-06-04T13:12:42;2.53;;;1.50;;
56399;SDS011;42298;53.638;9.876;2023-06-04T13:15:07;3.13;;;1.52;;
56399;SDS011;42298;53.638;9.876;2023-06-04T13:17:34;4.20;;;1.63;;
56399;SDS011;42298;53.638;9.876;2023-06-04T13:20:01;3.03;;;1.70;;
56399;SDS011;42298;53.638;9.876;2023-06-04T13:22:27;5.68;;;1.77;;
56399;SDS011;42298;53.638;9.876;2023-06-04T13:24:52;4.32;;;1.75;;
56399;SDS011;42298;53.638;9.876;2023-06-04T13:27:17;5.10;;;1.88;;
56399;SDS011;42298;53.638;9.876;2023-06-04T13:29:42;5.30;;;2.10;;
56399;SDS011;42298;53.638;9.876;2023-06-04T13:32:08;4.65;;;1.70;;
56399;SDS011;42298;53.638;9.876;2023-06-04T13:34:36;2.90;;;1.50;;
56399;SDS011;42298;53.638;9.876;2023-06-04T13:39:31;2.60;;;1.58;;
56399;SDS011;42298;53.638;9.876;2023-06-04T13:41:56;3.50;;;1.55;;
56399;SDS011;42298;53.638;9.876;2023-06-04T13:44:21;4.80;;;1.70;;
56399;SDS011;42298;53.638;9.876;2023-06-04T13:46:51;3.25;;;1.58;;
56399;SDS011;42298;53.638;9.876;2023-06-04T13:49:16;2.95;;;1.70;;
56399;SDS011;42298;53.638;9.876;2023-06-04T13:51:42;3.50;;;1.58;;
56399;SDS011;42298;53.638;9.876;2023-06-04T13:54:07;4.45;;;1.92;;
56399;SDS011;42298;53.638;9.876;2023-06-04T13:56:33;4.00;;;1.63;;
56399;SDS011;42298;53.638;9.876;2023-06-04T13:58:59;3.33;;;1.73;;
56399;SDS011;42298;53.638;9.876;2023-06-04T14:01:24;3.65;;;1.90;;
56399;SDS011;42298;53.638;9.876;2023-06-04T14:03:52;3.05;;;1.90;;
56399;SDS011;42298;53.638;9.876;2023-06-04T14:06:18;2.13;;;1.48;;
56399;SDS011;42298;53.638;9.876;2023-06-04T14:08:43;3.35;;;1.58;;
56399;SDS011;42298;53.638;9.876;2023-06-04T14:11:08;5.90;;;1.90;;
56399;SDS011;42298;53.638;9.876;2023-06-04T14:13:35;3.22;;;1.40;;
56399;SDS011;42298;53.638;9.876;2023-06-04T14:16:03;3.85;;;1.90;;
56399;SDS011;42298;53.638;9.876;2023-06-04T14:18:29;3.83;;;1.70;;
56399;SDS011;42298;53.638;9.876;2023-06-04T14:20:56;2.30;;;1.60;;
56399;SDS011;42298;53.638;9.876;2023-06-04T14:23:24;3.97;;;1.77;;
56399;SDS011;42298;53.638;9.876;2023-06-04T14:25:49;2.42;;;1.35;;
56399;SDS011;42298;53.638;9.876;2023-06-04T14:28:15;3.20;;;1.52;;
56399;SDS011;42298;53.638;9.876;2023-06-04T14:30:40;3.50;;;1.70;;
56399;SDS011;42298;53.638;9.876;2023-06-04T14:33:05;2.47;;;1.52;;
56399;SDS011;42298;53.638;9.876;2023-06-04T14:35:31;4.10;;;1.80;;
56399;SDS011;42298;53.638;9.876;2023-06-04T14:37:56;3.33;;;1.80;;
56399;SDS011;42298;53.638;9.876;2023-06-04T14:40:22;2.85;;;1.80;;
56399;SDS011;42298;53.638;9.876;2023-06-04T14:42:47;3.78;;;2.00;;
56399;SDS011;42298;53.638;9.876;2023-06-04T14:45:12;4.82;;;1.85;;
56399;SDS011;42298;53.638;9.876;2023-06-04T14:47:37;6.68;;;2.13;;
56399;SDS011;42298;53.638;9.876;2023-06-04T14:50:03;3.38;;;2.08;;
56399;SDS011;42298;53.638;9.876;2023-06-04T14:52:28;4.47;;;2.03;;
56399;SDS011;42298;53.638;9.876;2023-06-04T14:54:54;3.42;;;1.88;;
56399;SDS011;42298;53.638;9.876;2023-06-04T14:57:21;5.80;;;1.90;;
56399;SDS011;42298;53.638;9.876;2023-06-04T14:59:48;3.92;;;1.70;;
56399;SDS011;42298;53.638;9.876;2023-06-04T15:02:13;5.57;;;1.90;;
56399;SDS011;42298;53.638;9.876;2023-06-04T15:04:44;4.50;;;1.80;;
56399;SDS011;42298;53.638;9.876;2023-06-04T15:07:09;4.78;;;1.88;;
56399;SDS011;42298;53.638;9.876;2023-06-04T15:09:35;3.60;;;1.85;;
56399;SDS011;42298;53.638;9.876;2023-06-04T15:12:03;4.70;;;1.73;;